sensor_id;sensor_type;location;lat;lon;timestamp;pressure;altitude;pressure_sealevel;temperature;humidity
11198;BME280;5655;48.744;9.162;2023-01-16T00:00:56;94997.88;;;4.02;100.00
11198;BME280;5655;48.744;9.162;2023-01-16T00:03:21;94984.44;;;4.15;100.00
11198;BME280;5655;48.744;9.162;2023-01-16T00:05:47;94974.63;;;4.15;100.00
11198;BME280;5655;48.744;9.162;2023-01-16T00:08:12;94971.22;;;4.41;100.00
11198;BME280;5655;48.744;9.162;2023-01-16T00:10:38;94963.03;;;4.49;100.00
11198;BME280;5655;48.744;9.162;2023-01-16T00:13:04;94959.00;;;4.33;100.00
11198;BME280;5655;48.744;9.162;2023-01-16T00:15:29;94971.94;;;4.38;100.00
11198;BME280;5655;48.744;9.162;2023-01-16T00:17:54;94960.31;;;4.46;100.00
11198;BME280;5655;48.744;9.162;2023-01-16T00:20:20;94958.19;;;4.29;100.00
11198;BME280;5655;48.744;9.162;2023-01-16T00:22:45;94960.84;;;4.55;100.00
11198;BME280;5655;48.744;9.162;2023-01-16T00:25:11;94936.09;;;4.18;100.00
11198;BME280;5655;48.744;9.162;2023-01-16T00:27:36;94938.59;;;4.33;100.00
11198;BME280;5655;48.744;9.162;2023-01-16T00:30:03;94931.50;;;4.41;100.00
11198;BME280;5655;48.744;9.162;2023-01-16T00:32:28;94925.59;;;4.25;100.00
11198;BME280;5655;48.744;9.162;2023-01-16T00:34:54;94925.13;;;4.45;100.00
11198;BME280;5655;48.744;9.162;2023-01-16T00:37:19;94916.09;;;4.50;100.00
11198;BME280;5655;48.744;9.162;2023-01-16T00:39:44;94918.13;;;4.60;100.00
11198;BME280;5655;48.744;9.162;2023-01-16T00:42:09;94910.19;;;4.60;100.00
11198;BME280;5655;48.744;9.162;2023-01-16T00:44:35;94915.06;;;4.28;100.00
11198;BME280;5655;48.744;9.162;2023-01-16T00:47:00;94912.97;;;4.15;100.00
11198;BME280;5655;48.744;9.162;2023-01-16T00:49:26;94902.28;;;4.34;100.00
11198;BME280;5655;48.744;9.162;2023-01-16T00:51:52;94884.53;;;4.38;100.00
11198;BME280;5655;48.744;9.162;2023-01-16T00:54:18;94889.81;;;4.34;100.00
11198;BME280;5655;48.744;9.162;2023-01-16T00:56:44;94892.56;;;4.45;100.00
11198;BME280;5655;48.744;9.162;2023-01-16T00:59:09;94884.97;;;4.40;100.00
11198;BME280;5655;48.744;9.162;2023-01-16T01:01:35;94880.47;;;4.44;100.00
11198;BME280;5655;48.744;9.162;2023-01-16T01:04:00;94881.47;;;4.36;100.00
11198;BME280;5655;48.744;9.162;2023-01-16T01:06:25;94869.50;;;4.16;100.00
11198;BME280;5655;48.744;9.162;2023-01-16T01:08:51;94873.16;;;4.07;100.00
11198;BME280;5655;48.744;9.162;2023-01-16T01:11:16;94873.94;;;4.08;100.00
11198;BME280;5655;48.744;9.162;2023-01-16T01:13:42;94854.09;;;4.25;100.00
11198;BME280;5655;48.744;9.162;2023-01-16T01:16:08;94858.81;;;4.08;100.00
11198;BME280;5655;48.744;9.162;2023-01-16T01:18:34;94849.03;;;4.13;100.00
11198;BME280;5655;48.744;9.162;2023-01-16T01:20:59;94845.44;;;4.28;100.00
11198;BME280;5655;48.744;9.162;2023-01-16T01:23:25;94832.22;;;4.01;100.00
11198;BME280;5655;48.744;9.162;2023-01-16T01:25:50;94839.44;;;4.31;100.00
11198;BME280;5655;48.744;9.162;2023-01-16T01:28:17;94821.63;;;4.01;100.00
11198;BME280;5655;48.744;9.162;2023-01-16T01:30:42;94822.66;;;3.93;100.00
11198;BME280;5655;48.744;9.162;2023-01-16T01:33:08;94823.50;;;4.27;100.00
11198;BME280;5655;48.744;9.162;2023-01-16T01:35:34;94824.91;;;4.18;100.00
11198;BME280;5655;48.744;9.162;2023-01-16T01:38:00;94822.75;;;4.27;100.00
11198;BME280;5655;48.744;9.162;2023-01-16T01:40:25;94820.31;;;4.15;100.00
11198;BME280;5655;48.744;9.162;2023-01-16T01:42:51;94820.56;;;4.36;100.00
11198;BME280;5655;48.744;9.162;2023-01-16T01:45:37;94815.72;;;4.11;100.00
11198;BME280;5655;48.744;9.162;2023-01-16T01:50:38;94812.91;;;4.27;100.00
11198;BME280;5655;48.744;9.162;2023-01-16T01:53:12;94810.16;;;4.50;100.00
11198;BME280;5655;48.744;9.162;2023-01-16T01:55:40;94807.47;;;4.46;100.00
11198;BME280;5655;48.744;9.162;2023-01-16T01:58:07;94795.13;;;4.28;100.00
11198;BME280;5655;48.744;9.162;2023-01-16T02:00:33;94798.50;;;3.95;100.00
11198;BME280;5655;48.744;9.162;2023-01-16T02:03:05;94785.41;;;4.05;100.00
11198;BME280;5655;48.744;9.162;2023-01-16T02:05:37;94773.31;;;4.04;100.00
11198;BME280;5655;48.744;9.162;2023-01-16T02:08:04;94761.88;;;3.97;100.00
11198;BME280;5655;48.744;9.162;2023-01-16T02:10:50;94750.44;;;3.93;100.00
11198;BME280;5655;48.744;9.162;2023-01-16T02:13:16;94747.34;;;3.57;100.00
11198;BME280;5655;48.744;9.162;2023-01-16T02:15:42;94731.47;;;3.57;100.00
11198;BME280;5655;48.744;9.162;2023-01-16T02:18:28;94721.59;;;3.84;100.00
11198;BME280;5655;48.744;9.162;2023-01-16T02:24:42;94708.09;;;4.23;100.00
11198;BME280;5655;48.744;9.162;2023-01-16T02:27:37;94705.66;;;4.10;100.00
11198;BME280;5655;48.744;9.162;2023-01-16T02:33:14;94687.06;;;4.03;100.00
11198;BME280;5655;48.744;9.162;2023-01-16T02:38:34;94675.72;;;4.03;100.00
11198;BME280;5655;48.744;9.162;2023-01-16T02:41:15;94668.28;;;4.16;100.00
11198;BME280;5655;48.744;9.162;2023-01-16T02:49:20;94640.50;;;4.36;100.00
11198;BME280;5655;48.744;9.162;2023-01-16T02:52:15;94628.44;;;4.42;100.00
11198;BME280;5655;48.744;9.162;2023-01-16T02:57:27;94623.00;;;4.24;100.00
11198;BME280;5655;48.744;9.162;2023-01-16T02:59:54;94606.06;;;3.95;100.00
11198;BME280;5655;48.744;9.162;2023-01-16T03:02:20;94595.94;;;4.01;100.00
11198;BME280;5655;48.744;9.162;2023-01-16T03:04:50;94585.84;;;4.14;100.00
11198;BME280;5655;48.744;9.162;2023-01-16T03:07:23;94585.91;;;4.21;100.00
11198;BME280;5655;48.744;9.162;2023-01-16T03:18:36;94546.59;;;4.23;100.00
11198;BME280;5655;48.744;9.162;2023-01-16T03:21:13;94532.28;;;4.31;100.00
11198;BME280;5655;48.744;9.162;2023-01-16T03:23:58;94528.44;;;4.25;100.00
11198;BME280;5655;48.744;9.162;2023-01-16T03:29:22;94518.44;;;4.04;100.00
11198;BME280;5655;48.744;9.162;2023-01-16T03:34:30;94519.81;;;3.87;100.00
11198;BME280;5655;48.744;9.162;2023-01-16T03:37:06;94517.88;;;4.32;100.00
11198;BME280;5655;48.744;9.162;2023-01-16T03:39:38;94505.81;;;4.31;100.00
11198;BME280;5655;48.744;9.162;2023-01-16T03:42:11;94501.19;;;4.21;100.00
11198;BME280;5655;48.744;9.162;2023-01-16T03:44:42;94490.41;;;3.96;100.00
11198;BME280;5655;48.744;9.162;2023-01-16T03:47:16;94483.44;;;4.28;100.00
11198;BME280;5655;48.744;9.162;2023-01-16T03:49:47;94471.41;;;3.87;100.00
11198;BME280;5655;48.744;9.162;2023-01-16T03:52:16;94460.84;;;3.90;100.00
11198;BME280;5655;48.744;9.162;2023-01-16T03:57:19;94454.97;;;4.15;100.00
11198;BME280;5655;48.744;9.162;2023-01-16T03:59:47;94449.81;;;3.81;100.00
11198;BME280;5655;48.744;9.162;2023-01-16T04:02:51;94440.44;;;3.87;100.00
11198;BME280;5655;48.744;9.162;2023-01-16T04:08:14;94416.19;;;3.82;100.00
11198;BME280;5655;48.744;9.162;2023-01-16T04:10:44;94405.13;;;3.69;100.00
11198;BME280;5655;48.744;9.162;2023-01-16T04:13:15;94398.88;;;3.91;100.00
11198;BME280;5655;48.744;9.162;2023-01-16T04:15:44;94391.06;;;4.13;100.00
11198;BME280;5655;48.744;9.162;2023-01-16T04:18:11;94381.66;;;4.19;100.00
11198;BME280;5655;48.744;9.162;2023-01-16T04:20:38;94373.34;;;4.24;100.00
11198;BME280;5655;48.744;9.162;2023-01-16T04:23:05;94367.91;;;3.95;100.00
11198;BME280;5655;48.744;9.162;2023-01-16T04:25:30;94364.03;;;3.82;100.00
11198;BME280;5655;48.744;9.162;2023-01-16T04:27:55;94350.56;;;3.47;100.00
11198;BME280;5655;48.744;9.162;2023-01-16T04:30:21;94342.41;;;3.66;100.00
11198;BME280;5655;48.744;9.162;2023-01-16T04:32:46;94344.22;;;3.58;100.00
11198;BME280;5655;48.744;9.162;2023-01-16T04:35:11;94335.19;;;3.63;100.00
11198;BME280;5655;48.744;9.162;2023-01-16T04:37:37;94326.88;;;3.61;100.00
11198;BME280;5655;48.744;9.162;2023-01-16T04:40:02;94314.72;;;3.53;100.00
11198;BME280;5655;48.744;9.162;2023-01-16T04:42:28;94314.59;;;3.35;100.00
11198;BME280;5655;48.744;9.162;2023-01-16T04:44:53;94307.28;;;3.73;100.00
11198;BME280;5655;48.744;9.162;2023-01-16T04:47:18;94300.19;;;3.33;100.00
11198;BME280;5655;48.744;9.162;2023-01-16T04:49:44;94283.66;;;3.43;100.00
11198;BME280;5655;48.744;9.162;2023-01-16T04:52:11;94274.06;;;3.75;100.00
11198;BME280;5655;48.744;9.162;2023-01-16T04:54:37;94257.19;;;3.32;100.00
11198;BME280;5655;48.744;9.162;2023-01-16T04:57:02;94246.63;;;3.39;100.00
11198;BME280;5655;48.744;9.162;2023-01-16T04:59:28;94234.53;;;3.38;100.00
11198;BME280;5655;48.744;9.162;2023-01-16T05:01:53;94242.16;;;3.47;100.00
11198;BME280;5655;48.744;9.162;2023-01-16T05:04:18;94227.16;;;3.72;100.00
11198;BME280;5655;48.744;9.162;2023-01-16T05:06:45;94233.50;;;3.53;100.00
11198;BME280;5655;48.744;9.162;2023-01-16T05:09:10;94225.25;;;3.62;100.00
11198;BME280;5655;48.744;9.162;2023-01-16T05:11:35;94213.59;;;3.77;100.00
11198;BME280;5655;48.744;9.162;2023-01-16T05:14:01;94211.25;;;3.58;100.00
11198;BME280;5655;48.744;9.162;2023-01-16T05:16:27;94204.47;;;3.64;100.00
11198;BME280;5655;48.744;9.162;2023-01-16T05:18:53;94194.69;;;3.75;100.00
11198;BME280;5655;48.744;9.162;2023-01-16T05:21:18;94193.53;;;3.69;100.00
11198;BME280;5655;48.744;9.162;2023-01-16T05:23:43;94183.41;;;3.89;100.00
11198;BME280;5655;48.744;9.162;2023-01-16T05:26:09;94178.06;;;3.75;100.00
11198;BME280;5655;48.744;9.162;2023-01-16T05:28:35;94162.91;;;3.68;100.00
11198;BME280;5655;48.744;9.162;2023-01-16T05:31:01;94160.66;;;3.70;100.00
11198;BME280;5655;48.744;9.162;2023-01-16T05:33:27;94157.75;;;3.96;100.00
11198;BME280;5655;48.744;9.162;2023-01-16T05:35:52;94154.69;;;3.94;100.00
11198;BME280;5655;48.744;9.162;2023-01-16T05:38:19;94138.09;;;4.15;100.00
11198;BME280;5655;48.744;9.162;2023-01-16T05:40:45;94132.09;;;4.22;100.00
11198;BME280;5655;48.744;9.162;2023-01-16T05:43:10;94126.38;;;4.16;100.00
11198;BME280;5655;48.744;9.162;2023-01-16T05:45:36;94116.16;;;4.04;100.00
11198;BME280;5655;48.744;9.162;2023-01-16T05:48:02;94107.81;;;3.91;100.00
11198;BME280;5655;48.744;9.162;2023-01-16T05:50:27;94097.31;;;4.48;100.00
11198;BME280;5655;48.744;9.162;2023-01-16T05:52:53;94088.59;;;4.23;100.00
11198;BME280;5655;48.744;9.162;2023-01-16T05:55:18;94081.41;;;4.27;100.00
11198;BME280;5655;48.744;9.162;2023-01-16T05:57:43;94082.53;;;4.15;100.00
11198;BME280;5655;48.744;9.162;2023-01-16T06:00:09;94073.84;;;4.39;100.00
11198;BME280;5655;48.744;9.162;2023-01-16T06:02:35;94067.03;;;4.42;100.00
11198;BME280;5655;48.744;9.162;2023-01-16T06:05:00;94059.84;;;4.39;100.00
11198;BME280;5655;48.744;9.162;2023-01-16T06:07:26;94054.94;;;4.48;100.00
11198;BME280;5655;48.744;9.162;2023-01-16T06:09:51;94053.81;;;4.35;100.00
11198;BME280;5655;48.744;9.162;2023-01-16T06:12:18;94047.34;;;4.15;100.00
11198;BME280;5655;48.744;9.162;2023-01-16T06:14:44;94042.81;;;3.94;100.00
11198;BME280;5655;48.744;9.162;2023-01-16T06:17:12;94027.31;;;3.85;100.00
11198;BME280;5655;48.744;9.162;2023-01-16T06:19:42;94029.56;;;3.83;100.00
11198;BME280;5655;48.744;9.162;2023-01-16T06:22:08;93999.31;;;3.52;100.00
11198;BME280;5655;48.744;9.162;2023-01-16T06:24:34;94001.56;;;3.50;100.00
11198;BME280;5655;48.744;9.162;2023-01-16T06:26:59;93996.69;;;3.67;100.00
11198;BME280;5655;48.744;9.162;2023-01-16T06:29:24;93990.59;;;3.52;100.00
11198;BME280;5655;48.744;9.162;2023-01-16T06:31:50;93984.59;;;3.73;100.00
11198;BME280;5655;48.744;9.162;2023-01-16T06:34:15;93979.66;;;3.57;100.00
11198;BME280;5655;48.744;9.162;2023-01-16T06:36:41;93978.50;;;3.51;100.00
11198;BME280;5655;48.744;9.162;2023-01-16T06:39:07;93969.84;;;3.64;100.00
11198;BME280;5655;48.744;9.162;2023-01-16T06:41:33;93967.94;;;3.51;100.00
11198;BME280;5655;48.744;9.162;2023-01-16T06:43:58;93964.94;;;3.56;100.00
11198;BME280;5655;48.744;9.162;2023-01-16T06:46:23;93953.19;;;3.36;100.00
11198;BME280;5655;48.744;9.162;2023-01-16T06:48:49;93949.81;;;3.49;100.00
11198;BME280;5655;48.744;9.162;2023-01-16T06:51:14;93942.22;;;3.34;100.00
11198;BME280;5655;48.744;9.162;2023-01-16T06:53:39;93940.72;;;3.33;100.00
11198;BME280;5655;48.744;9.162;2023-01-16T06:56:05;93934.69;;;3.36;100.00
11198;BME280;5655;48.744;9.162;2023-01-16T06:58:30;93934.69;;;3.36;100.00
11198;BME280;5655;48.744;9.162;2023-01-16T07:00:55;93931.69;;;3.41;100.00
11198;BME280;5655;48.744;9.162;2023-01-16T07:03:21;93924.09;;;3.29;100.00
11198;BME280;5655;48.744;9.162;2023-01-16T07:05:47;93920.72;;;3.46;100.00
11198;BME280;5655;48.744;9.162;2023-01-16T07:08:13;93906.75;;;3.35;100.00
11198;BME280;5655;48.744;9.162;2023-01-16T07:10:38;93912.00;;;3.24;100.00
11198;BME280;5655;48.744;9.162;2023-01-16T07:13:04;93892.00;;;3.30;100.00
11198;BME280;5655;48.744;9.162;2023-01-16T07:15:29;93889.38;;;3.41;100.00
11198;BME280;5655;48.744;9.162;2023-01-16T07:18:14;93896.19;;;3.56;100.00
11198;BME280;5655;48.744;9.162;2023-01-16T07:21:01;93889.38;;;3.55;100.00
11198;BME280;5655;48.744;9.162;2023-01-16T07:23:56;93882.59;;;3.75;100.00
11198;BME280;5655;48.744;9.162;2023-01-16T07:26:23;93880.31;;;3.49;100.00
11198;BME280;5655;48.744;9.162;2023-01-16T07:28:50;93868.22;;;3.83;100.00
11198;BME280;5655;48.744;9.162;2023-01-16T07:31:17;93861.44;;;3.61;100.00
11198;BME280;5655;48.744;9.162;2023-01-16T07:33:43;93855.75;;;3.73;100.00
11198;BME280;5655;48.744;9.162;2023-01-16T07:36:08;93852.38;;;3.51;100.00
11198;BME280;5655;48.744;9.162;2023-01-16T07:38:33;93850.84;;;3.54;100.00
11198;BME280;5655;48.744;9.162;2023-01-16T07:40:59;93846.28;;;3.72;100.00
11198;BME280;5655;48.744;9.162;2023-01-16T07:43:24;93849.72;;;3.48;100.00
11198;BME280;5655;48.744;9.162;2023-01-16T07:45:49;93845.91;;;3.63;100.00
11198;BME280;5655;48.744;9.162;2023-01-16T07:48:24;93833.41;;;3.95;100.00
11198;BME280;5655;48.744;9.162;2023-01-16T07:50:57;93826.56;;;4.12;100.00
11198;BME280;5655;48.744;9.162;2023-01-16T07:53:25;93823.59;;;3.85;100.00
11198;BME280;5655;48.744;9.162;2023-01-16T07:55:53;93816.06;;;3.84;100.00
11198;BME280;5655;48.744;9.162;2023-01-16T07:58:20;93814.16;;;3.84;100.00
11198;BME280;5655;48.744;9.162;2023-01-16T08:00:46;93801.72;;;3.67;100.00
11198;BME280;5655;48.744;9.162;2023-01-16T08:03:11;93794.53;;;3.71;100.00
11198;BME280;5655;48.744;9.162;2023-01-16T08:05:38;93797.88;;;3.96;100.00
11198;BME280;5655;48.744;9.162;2023-01-16T08:08:04;93793.38;;;3.83;100.00
11198;BME280;5655;48.744;9.162;2023-01-16T08:10:29;93791.13;;;3.81;100.00
11198;BME280;5655;48.744;9.162;2023-01-16T08:12:55;93783.91;;;3.92;100.00
11198;BME280;5655;48.744;9.162;2023-01-16T08:15:20;93774.09;;;3.89;100.00
11198;BME280;5655;48.744;9.162;2023-01-16T08:17:46;93763.84;;;3.98;100.00
11198;BME280;5655;48.744;9.162;2023-01-16T08:20:11;93745.72;;;3.97;100.00
11198;BME280;5655;48.744;9.162;2023-01-16T08:22:45;93756.22;;;4.22;100.00
11198;BME280;5655;48.744;9.162;2023-01-16T08:25:11;93756.22;;;4.15;100.00
11198;BME280;5655;48.744;9.162;2023-01-16T08:27:37;93748.66;;;4.17;100.00
11198;BME280;5655;48.744;9.162;2023-01-16T08:30:04;93756.13;;;4.36;100.00
11198;BME280;5655;48.744;9.162;2023-01-16T08:32:29;93743.69;;;4.26;100.00
11198;BME280;5655;48.744;9.162;2023-01-16T08:34:54;93738.78;;;4.24;100.00
11198;BME280;5655;48.744;9.162;2023-01-16T08:37:20;93737.34;;;4.09;100.00
11198;BME280;5655;48.744;9.162;2023-01-16T08:39:45;93737.63;;;4.29;100.00
11198;BME280;5655;48.744;9.162;2023-01-16T08:42:10;93731.66;;;4.14;100.00
11198;BME280;5655;48.744;9.162;2023-01-16T08:44:54;93724.34;;;4.36;100.00
11198;BME280;5655;48.744;9.162;2023-01-16T08:47:38;93717.91;;;4.37;100.00
11198;BME280;5655;48.744;9.162;2023-01-16T08:50:22;93729.63;;;4.43;100.00
11198;BME280;5655;48.744;9.162;2023-01-16T08:53:06;93719.81;;;4.36;100.00
11198;BME280;5655;48.744;9.162;2023-01-16T08:55:32;93711.94;;;4.26;100.00
11198;BME280;5655;48.744;9.162;2023-01-16T08:57:57;93712.22;;;4.42;100.00
11198;BME280;5655;48.744;9.162;2023-01-16T09:00:25;93725.63;;;4.76;100.00
11198;BME280;5655;48.744;9.162;2023-01-16T09:02:51;93715.84;;;4.69;100.00
11198;BME280;5655;48.744;9.162;2023-01-16T09:05:17;93718.88;;;4.64;100.00
11198;BME280;5655;48.744;9.162;2023-01-16T09:07:42;93713.59;;;4.64;100.00
11198;BME280;5655;48.744;9.162;2023-01-16T09:10:08;93728.13;;;4.93;100.00
11198;BME280;5655;48.744;9.162;2023-01-16T09:12:34;93726.06;;;4.67;100.00
11198;BME280;5655;48.744;9.162;2023-01-16T09:15:18;93743.69;;;4.88;100.00
11198;BME280;5655;48.744;9.162;2023-01-16T09:17:43;93740.13;;;5.12;100.00
11198;BME280;5655;48.744;9.162;2023-01-16T09:20:09;93754.78;;;5.24;100.00
11198;BME280;5655;48.744;9.162;2023-01-16T09:22:34;93765.84;;;5.15;100.00
11198;BME280;5655;48.744;9.162;2023-01-16T09:25:00;93767.72;;;5.15;100.00
11198;BME280;5655;48.744;9.162;2023-01-16T09:27:25;93756.22;;;4.87;100.00
11198;BME280;5655;48.744;9.162;2023-01-16T09:29:51;93742.16;;;4.90;100.00
11198;BME280;5655;48.744;9.162;2023-01-16T09:32:17;93743.31;;;4.89;100.00
11198;BME280;5655;48.744;9.162;2023-01-16T09:34:43;93723.75;;;5.21;100.00
11198;BME280;5655;48.744;9.162;2023-01-16T09:37:10;93729.34;;;5.30;100.00
11198;BME280;5655;48.744;9.162;2023-01-16T09:39:36;93713.59;;;5.12;100.00
11198;BME280;5655;48.744;9.162;2023-01-16T09:44:57;93704.78;;;5.26;100.00
11198;BME280;5655;48.744;9.162;2023-01-16T09:47:25;93704.66;;;5.36;100.00
11198;BME280;5655;48.744;9.162;2023-01-16T09:49:59;93693.25;;;5.43;100.00
11198;BME280;5655;48.744;9.162;2023-01-16T09:52:28;93700.16;;;5.33;100.00
11198;BME280;5655;48.744;9.162;2023-01-16T09:55:38;93689.38;;;5.51;100.00
11198;BME280;5655;48.744;9.162;2023-01-16T09:58:24;93690.50;;;5.13;100.00
11198;BME280;5655;48.744;9.162;2023-01-16T10:01:31;93685.91;;;5.54;100.00
11198;BME280;5655;48.744;9.162;2023-01-16T10:04:18;93677.09;;;5.64;100.00
11198;BME280;5655;48.744;9.162;2023-01-16T10:06:54;93670.28;;;5.63;100.00
11198;BME280;5655;48.744;9.162;2023-01-16T10:09:44;93664.22;;;5.63;100.00
11198;BME280;5655;48.744;9.162;2023-01-16T10:12:13;93650.81;;;5.43;100.00
11198;BME280;5655;48.744;9.162;2023-01-16T10:14:48;93645.22;;;5.68;100.00
11198;BME280;5655;48.744;9.162;2023-01-16T10:25:29;93628.72;;;5.83;100.00
11198;BME280;5655;48.744;9.162;2023-01-16T10:30:32;93616.81;;;5.99;100.00
11198;BME280;5655;48.744;9.162;2023-01-16T10:33:27;93611.06;;;6.00;100.00
11198;BME280;5655;48.744;9.162;2023-01-16T10:35:57;93605.28;;;6.09;100.00
11198;BME280;5655;48.744;9.162;2023-01-16T10:38:45;93590.78;;;6.17;100.00
11198;BME280;5655;48.744;9.162;2023-01-16T10:41:22;93596.16;;;6.10;100.00
11198;BME280;5655;48.744;9.162;2023-01-16T10:44:32;93583.69;;;6.33;100.00
11198;BME280;5655;48.744;9.162;2023-01-16T10:47:22;93572.91;;;6.17;100.00
11198;BME280;5655;48.744;9.162;2023-01-16T10:50:07;93575.56;;;6.17;100.00
11198;BME280;5655;48.744;9.162;2023-01-16T10:52:33;93568.50;;;6.34;100.00
11198;BME280;5655;48.744;9.162;2023-01-16T10:55:00;93572.25;;;6.36;100.00
11198;BME280;5655;48.744;9.162;2023-01-16T10:57:26;93572.31;;;6.56;100.00
11198;BME280;5655;48.744;9.162;2023-01-16T10:59:55;93560.53;;;6.57;100.00
11198;BME280;5655;48.744;9.162;2023-01-16T11:02:29;93562.72;;;6.62;100.00
11198;BME280;5655;48.744;9.162;2023-01-16T11:04:56;93560.72;;;6.47;100.00
11198;BME280;5655;48.744;9.162;2023-01-16T11:07:22;93541.09;;;6.83;100.00
11198;BME280;5655;48.744;9.162;2023-01-16T11:09:48;93546.22;;;6.51;100.00
11198;BME280;5655;48.744;9.162;2023-01-16T11:12:28;93546.16;;;6.98;100.00
11198;BME280;5655;48.744;9.162;2023-01-16T11:15:23;93542.59;;;6.84;100.00
11198;BME280;5655;48.744;9.162;2023-01-16T11:18:29;93530.38;;;6.87;100.00
11198;BME280;5655;48.744;9.162;2023-01-16T11:21:16;93526.25;;;7.06;100.00
11198;BME280;5655;48.744;9.162;2023-01-16T11:23:44;93511.47;;;6.85;100.00
11198;BME280;5655;48.744;9.162;2023-01-16T11:26:11;93514.44;;;6.44;100.00
11198;BME280;5655;48.744;9.162;2023-01-16T11:28:37;93494.31;;;6.66;100.00
11198;BME280;5655;48.744;9.162;2023-01-16T11:31:06;93493.47;;;6.50;100.00
11198;BME280;5655;48.744;9.162;2023-01-16T11:33:41;93485.88;;;6.71;100.00
11198;BME280;5655;48.744;9.162;2023-01-16T11:36:09;93478.41;;;6.43;100.00
11198;BME280;5655;48.744;9.162;2023-01-16T11:38:38;93470.63;;;6.75;100.00
11198;BME280;5655;48.744;9.162;2023-01-16T11:41:07;93455.91;;;6.51;100.00
11198;BME280;5655;48.744;9.162;2023-01-16T11:43:33;93448.00;;;6.67;100.00
11198;BME280;5655;48.744;9.162;2023-01-16T11:48:54;93436.13;;;6.92;100.00
11198;BME280;5655;48.744;9.162;2023-01-16T11:51:24;93423.75;;;6.85;100.00
11198;BME280;5655;48.744;9.162;2023-01-16T11:53:51;93422.59;;;6.66;100.00
11198;BME280;5655;48.744;9.162;2023-01-16T11:56:45;93413.91;;;7.02;100.00
11198;BME280;5655;48.744;9.162;2023-01-16T12:02:26;93400.94;;;7.04;100.00
11198;BME280;5655;48.744;9.162;2023-01-16T12:08:20;93387.50;;;7.11;100.00
11198;BME280;5655;48.744;9.162;2023-01-16T12:11:03;93380.72;;;6.90;100.00
11198;BME280;5655;48.744;9.162;2023-01-16T12:21:47;93348.28;;;7.15;100.00
11198;BME280;5655;48.744;9.162;2023-01-16T12:24:20;93345.63;;;6.99;100.00
11198;BME280;5655;48.744;9.162;2023-01-16T12:27:03;93352.97;;;7.27;100.00
11198;BME280;5655;48.744;9.162;2023-01-16T12:45:52;93305.25;;;7.36;100.00
11198;BME280;5655;48.744;9.162;2023-01-16T12:51:17;93283.31;;;7.32;100.00
11198;BME280;5655;48.744;9.162;2023-01-16T12:54:20;93266.47;;;7.67;100.00
11198;BME280;5655;48.744;9.162;2023-01-16T12:59:41;93256.16;;;7.69;100.00
11198;BME280;5655;48.744;9.162;2023-01-16T13:04:40;93256.56;;;7.68;100.00
11198;BME280;5655;48.744;9.162;2023-01-16T13:07:13;93278.88;;;7.58;100.00
11198;BME280;5655;48.744;9.162;2023-01-16T13:10:02;93238.16;;;7.73;100.00
11198;BME280;5655;48.744;9.162;2023-01-16T13:12:49;93245.59;;;7.66;100.00
11198;BME280;5655;48.744;9.162;2023-01-16T13:15:36;93240.88;;;7.57;100.00
11198;BME280;5655;48.744;9.162;2023-01-16T13:18:11;93233.50;;;7.78;100.00
11198;BME280;5655;48.744;9.162;2023-01-16T13:20:39;93217.91;;;7.63;100.00
11198;BME280;5655;48.744;9.162;2023-01-16T13:23:13;93207.91;;;7.96;100.00
11198;BME280;5655;48.744;9.162;2023-01-16T13:25:44;93206.28;;;7.99;100.00
11198;BME280;5655;48.744;9.162;2023-01-16T13:28:30;93190.28;;;8.28;100.00
11198;BME280;5655;48.744;9.162;2023-01-16T13:31:02;93203.53;;;8.31;100.00
11198;BME280;5655;48.744;9.162;2023-01-16T13:33:31;93188.41;;;8.53;100.00
11198;BME280;5655;48.744;9.162;2023-01-16T13:36:25;93176.72;;;8.98;100.00
11198;BME280;5655;48.744;9.162;2023-01-16T13:41:33;93173.84;;;9.05;100.00
11198;BME280;5655;48.744;9.162;2023-01-16T13:44:18;93174.09;;;9.32;100.00
11198;BME280;5655;48.744;9.162;2023-01-16T13:47:10;93156.22;;;9.42;100.00
11198;BME280;5655;48.744;9.162;2023-01-16T13:49:37;93165.44;;;8.94;100.00
11198;BME280;5655;48.744;9.162;2023-01-16T13:52:04;93158.69;;;9.02;100.00
11198;BME280;5655;48.744;9.162;2023-01-16T13:54:37;93144.09;;;8.94;100.00
11198;BME280;5655;48.744;9.162;2023-01-16T13:57:16;93159.59;;;8.74;100.00
11198;BME280;5655;48.744;9.162;2023-01-16T13:59:47;93166.22;;;8.69;100.00
11198;BME280;5655;48.744;9.162;2023-01-16T14:02:24;93156.44;;;9.13;100.00
11198;BME280;5655;48.744;9.162;2023-01-16T14:13:23;93161.53;;;8.48;100.00
11198;BME280;5655;48.744;9.162;2023-01-16T14:15:54;93159.84;;;8.41;100.00
11198;BME280;5655;48.744;9.162;2023-01-16T14:18:40;93144.44;;;8.20;100.00
11198;BME280;5655;48.744;9.162;2023-01-16T14:21:19;93149.13;;;8.29;100.00
11198;BME280;5655;48.744;9.162;2023-01-16T14:23:49;93145.41;;;8.26;100.00
11198;BME280;5655;48.744;9.162;2023-01-16T14:26:50;93129.97;;;8.59;100.00
11198;BME280;5655;48.744;9.162;2023-01-16T14:29:44;93138.28;;;8.23;100.00
11198;BME280;5655;48.744;9.162;2023-01-16T14:34:38;93148.34;;;7.20;100.00
11198;BME280;5655;48.744;9.162;2023-01-16T14:37:15;93180.25;;;7.20;100.00
11198;BME280;5655;48.744;9.162;2023-01-16T14:42:40;93112.97;;;7.07;100.00
11198;BME280;5655;48.744;9.162;2023-01-16T14:45:30;93103.09;;;7.36;100.00
11198;BME280;5655;48.744;9.162;2023-01-16T14:54:06;93088.50;;;7.28;100.00
11198;BME280;5655;48.744;9.162;2023-01-16T14:56:57;93086.91;;;7.02;100.00
11198;BME280;5655;48.744;9.162;2023-01-16T14:59:33;93063.59;;;7.35;100.00
11198;BME280;5655;48.744;9.162;2023-01-16T15:02:05;93062.50;;;7.19;100.00
11198;BME280;5655;48.744;9.162;2023-01-16T15:04:51;93050.25;;;7.09;100.00
11198;BME280;5655;48.744;9.162;2023-01-16T15:07:20;93045.81;;;7.19;100.00
11198;BME280;5655;48.744;9.162;2023-01-16T15:09:49;93046.56;;;7.19;100.00
11198;BME280;5655;48.744;9.162;2023-01-16T15:12:16;93026.91;;;7.42;100.00
11198;BME280;5655;48.744;9.162;2023-01-16T15:14:55;93030.94;;;7.34;100.00
11198;BME280;5655;48.744;9.162;2023-01-16T15:20:20;93039.91;;;6.99;100.00
11198;BME280;5655;48.744;9.162;2023-01-16T15:23:16;93049.69;;;7.43;100.00
11198;BME280;5655;48.744;9.162;2023-01-16T15:28:49;93044.53;;;7.23;100.00
11198;BME280;5655;48.744;9.162;2023-01-16T15:31:24;93049.63;;;7.18;100.00
11198;BME280;5655;48.744;9.162;2023-01-16T15:34:04;93053.91;;;7.28;100.00